createdAt,value
2018-07-13T04:10:47.944Z,1604
2018-07-13T04:11:13.411Z,1624
2018-07-13T04:11:38.908Z,1648
2018-07-13T04:12:04.349Z,1672
2018-07-13T04:13:28.334Z,1792
2018-07-13T04:13:53.837Z,1852
2018-07-13T04:14:19.328Z,1912
2018-07-13T04:14:44.852Z,1984
2018-07-13T04:15:10.289Z,2076
2018-07-13T04:15:35.780Z,2176
2018-07-13T04:16:01.356Z,2264
2018-07-13T04:16:26.820Z,2340
2018-07-13T04:16:52.286Z,2416
2018-07-13T04:17:17.730Z,2492
2018-07-13T04:17:43.234Z,2548
2018-07-13T04:18:08.706Z,2588
2018-07-13T04:18:34.171Z,2600
2018-07-13T04:18:59.632Z,2596
2018-07-13T04:20:03.254Z,2516
2018-07-13T04:20:28.736Z,2444
2018-07-13T04:20:54.208Z,2336
2018-07-13T04:21:19.684Z,2224
2018-07-13T04:21:45.155Z,2120
2018-07-13T04:22:10.609Z,2036
2018-07-13T04:22:36.092Z,1944
2018-07-13T04:23:01.620Z,1860
2018-07-13T04:23:27.099Z,1820
2018-07-13T04:24:46.039Z,1796
2018-07-13T04:25:11.522Z,1788
2018-07-13T04:25:37.034Z,1808
2018-07-13T04:26:02.535Z,1812
2018-07-13T04:26:28.027Z,1832
2018-07-13T04:26:53.531Z,1860
2018-07-13T04:27:19.027Z,1900
2018-07-13T04:27:44.517Z,1932
2018-07-13T04:28:10.033Z,1940
2018-07-13T04:28:35.528Z,1948
2018-07-13T04:29:01.019Z,1956
2018-07-13T04:29:26.503Z,1956
2018-07-13T04:29:51.995Z,1956
2018-07-13T04:30:17.508Z,1996
2018-07-13T04:30:43.014Z,2040
2018-07-13T04:31:08.477Z,2032
2018-07-13T04:31:33.982Z,2076
2018-07-13T04:31:59.516Z,2152
2018-07-13T04:32:24.998Z,2228
2018-07-13T04:32:50.479Z,2280
2018-07-13T04:33:15.958Z,2348
2018-07-13T04:33:41.488Z,2372
2018-07-13T04:34:06.999Z,2344
2018-07-13T04:34:32.502Z,2320
2018-07-13T04:34:57.987Z,2260
2018-07-13T04:35:23.482Z,2264
2018-07-13T04:35:48.982Z,2288
2018-07-13T04:36:14.516Z,2296
2018-07-13T04:36:40.007Z,2304
2018-07-13T04:37:05.484Z,2296
2018-07-13T04:37:30.977Z,2340
2018-07-13T04:37:56.458Z,2404
2018-07-13T04:38:21.918Z,2420
2018-07-13T04:38:47.439Z,2380
2018-07-13T04:39:13.013Z,2364
2018-07-13T04:39:38.449Z,2344
2018-07-13T04:40:03.916Z,2276
2018-07-13T04:40:29.444Z,2184
2018-07-13T04:40:54.953Z,2128
2018-07-13T04:41:20.423Z,2112
2018-07-13T04:41:45.917Z,2132
2018-07-13T04:42:11.433Z,2152
2018-07-13T04:42:36.921Z,2256
2018-07-13T04:43:02.440Z,2428
2018-07-13T04:43:27.947Z,2536
2018-07-13T04:43:53.462Z,2552
2018-07-13T04:44:18.967Z,2540
2018-07-13T04:44:44.444Z,2520
2018-07-13T04:45:09.928Z,2544
2018-07-13T04:45:35.422Z,2620
2018-07-13T04:46:00.939Z,2716
2018-07-13T04:46:26.437Z,2744
2018-07-13T04:46:51.939Z,2704
2018-07-13T04:47:17.403Z,2744
2018-07-13T04:47:42.910Z,2800
2018-07-13T04:48:08.409Z,2868
2018-07-13T04:48:34.209Z,2916
2018-07-13T04:48:59.449Z,2868
2018-07-13T04:49:24.942Z,2812
2018-07-13T04:49:53.044Z,2796
2018-07-13T04:50:16.093Z,2712
2018-07-13T04:50:41.423Z,2664
2018-07-13T04:51:06.922Z,2572
2018-07-13T04:51:32.411Z,2528
2018-07-13T04:51:57.913Z,2564
2018-07-13T04:52:23.419Z,2588
2018-07-13T04:53:32.140Z,2584
2018-07-13T04:53:57.639Z,2560
2018-07-13T04:54:23.133Z,2572
2018-07-13T04:54:48.645Z,2628
2018-07-13T04:55:14.130Z,2716
2018-07-13T04:55:39.603Z,2748
2018-07-13T04:56:05.086Z,2752
2018-07-13T04:56:30.615Z,2776
2018-07-13T04:56:56.091Z,2756
2018-07-13T04:57:21.604Z,2712
2018-07-13T04:57:47.100Z,2692
2018-07-13T04:58:12.582Z,2688
2018-07-13T04:58:38.066Z,2692
2018-07-13T04:59:03.557Z,2672
2018-07-13T04:59:29.061Z,2628
2018-07-13T04:59:54.549Z,2600
2018-07-13T05:00:20.035Z,2588
2018-07-13T05:00:45.595Z,2616
2018-07-13T05:01:11.082Z,2764
2018-07-13T05:01:36.556Z,2896
2018-07-13T05:02:02.036Z,2908
2018-07-13T05:02:27.521Z,2860
2018-07-13T05:02:53.044Z,2804
2018-07-13T05:03:18.524Z,2788
2018-07-13T05:03:44.001Z,2808
2018-07-13T05:04:09.472Z,2756
2018-07-13T05:04:34.956Z,2632
2018-07-13T05:05:00.490Z,2572
2018-07-13T05:05:25.944Z,2568
2018-07-13T05:05:51.435Z,2628
2018-07-13T05:06:17.003Z,2732
2018-07-13T05:06:42.466Z,2808
2018-07-13T05:07:07.948Z,2820
2018-07-13T05:07:33.430Z,2716
2018-07-13T05:07:58.925Z,2612
2018-07-13T05:08:24.408Z,2544
2018-07-13T05:08:49.907Z,2516
2018-07-13T05:09:15.446Z,2544
2018-07-13T05:09:40.944Z,2572
2018-07-13T05:10:06.499Z,2632
2018-07-13T05:10:31.931Z,2632
2018-07-13T05:10:57.431Z,2556
2018-07-13T05:11:22.958Z,2536
2018-07-13T05:11:48.475Z,2592
2018-07-13T05:12:13.980Z,2660
2018-07-13T05:12:39.509Z,2584
2018-07-13T05:13:04.982Z,2396
2018-07-13T05:13:30.474Z,2280
2018-07-13T05:13:55.989Z,2272
2018-07-13T05:14:21.449Z,2420
2018-07-13T05:14:46.940Z,2484
2018-07-13T05:15:12.397Z,2520
2018-07-13T05:15:37.907Z,2588
2018-07-13T05:16:03.383Z,2628
2018-07-13T05:16:28.878Z,2656
2018-07-13T05:16:54.373Z,2624
2018-07-13T05:17:19.869Z,2576
2018-07-13T05:17:45.359Z,2616
2018-07-13T05:18:10.854Z,2784
2018-07-13T05:18:36.361Z,2936
2018-07-13T05:19:01.867Z,3040
2018-07-13T05:19:27.412Z,3008
2018-07-13T05:19:52.903Z,2928
2018-07-13T05:20:18.393Z,2820
2018-07-13T05:20:43.897Z,2644
2018-07-13T05:21:09.400Z,2576
2018-07-13T05:21:34.951Z,2580
2018-07-13T05:22:00.454Z,2680
2018-07-13T05:22:25.976Z,2768
2018-07-13T05:22:51.449Z,2656
2018-07-13T05:23:16.955Z,2704
2018-07-13T05:23:42.457Z,2752
2018-07-13T05:24:07.932Z,2912
2018-07-13T05:24:33.460Z,2944
2018-07-13T05:24:58.969Z,2796
2018-07-13T05:25:24.456Z,2604
2018-07-13T05:25:49.939Z,2456
2018-07-13T05:26:15.466Z,2376
2018-07-13T05:26:40.958Z,2408
2018-07-13T05:27:06.470Z,2536
2018-07-13T05:27:31.960Z,2656
2018-07-13T05:27:57.490Z,2684
2018-07-13T05:29:11.274Z,2560
2018-07-13T05:29:36.782Z,2368
2018-07-13T05:30:02.259Z,2148
2018-07-13T05:30:27.754Z,2032
2018-07-13T05:30:53.372Z,2048
2018-07-13T05:31:18.747Z,2216
2018-07-13T05:31:44.232Z,2412
2018-07-13T05:32:09.721Z,2340
2018-07-13T05:32:35.184Z,2144
2018-07-13T05:33:00.680Z,1896
2018-07-13T05:33:26.193Z,1764
2018-07-13T05:33:51.689Z,1764
2018-07-13T05:34:17.188Z,1808
2018-07-13T05:34:42.664Z,1864
2018-07-13T05:35:08.321Z,2084
2018-07-13T05:35:33.844Z,2436
2018-07-13T05:35:59.307Z,2648
2018-07-13T05:36:25.548Z,2712
2018-07-13T05:36:51.052Z,2608
2018-07-13T05:37:16.556Z,2720
2018-07-13T05:37:42.034Z,2940
2018-07-13T05:38:07.555Z,3192
2018-07-13T05:38:33.030Z,3720
2018-07-13T05:38:58.549Z,4212
2018-07-13T05:39:24.070Z,4336
2018-07-13T05:39:49.559Z,4200
2018-07-13T05:40:15.268Z,4088
2018-07-13T05:40:40.611Z,3980
2018-07-13T05:41:06.108Z,3840
2018-07-13T05:41:31.637Z,3612
2018-07-13T05:41:57.157Z,3308
2018-07-13T05:42:22.702Z,2996
2018-07-13T05:42:48.253Z,2760
2018-07-13T05:43:13.718Z,2596
2018-07-13T05:44:37.755Z,2504
2018-07-13T05:45:03.249Z,2432
2018-07-13T05:45:28.738Z,2488
2018-07-13T05:45:54.236Z,2636
2018-07-13T05:46:19.730Z,2904
2018-07-13T05:46:45.232Z,3120
2018-07-13T05:47:10.737Z,3184
2018-07-13T05:47:36.251Z,2992
2018-07-13T05:48:01.743Z,2700
2018-07-13T05:48:27.300Z,2512
2018-07-13T05:48:52.697Z,2492
2018-07-13T05:49:18.217Z,2572
2018-07-13T05:49:43.866Z,2856
2018-07-13T05:50:09.240Z,3232
2018-07-13T05:50:34.742Z,3428
2018-07-13T05:51:00.232Z,3228
2018-07-13T05:51:25.716Z,2900
2018-07-13T05:51:51.222Z,2716
2018-07-13T05:52:16.721Z,2728
2018-07-13T05:52:42.219Z,2864
2018-07-13T05:53:07.736Z,2996
2018-07-13T05:53:33.250Z,3060
2018-07-13T05:53:58.730Z,2932
2018-07-13T05:55:02.380Z,2860
2018-07-13T05:55:27.864Z,2848
2018-07-13T05:55:53.356Z,2744
2018-07-13T05:56:18.855Z,2608
2018-07-13T05:56:44.347Z,2536
2018-07-13T05:58:03.257Z,2588
2018-07-13T05:58:28.764Z,2472
2018-07-13T05:58:54.262Z,2448
2018-07-13T05:59:19.798Z,2504
2018-07-13T05:59:45.287Z,2672
2018-07-13T06:00:10.800Z,2880
2018-07-13T06:00:36.255Z,3004
2018-07-13T06:01:01.785Z,2952
2018-07-13T06:01:27.287Z,2960
2018-07-13T06:01:52.782Z,3084
2018-07-13T06:02:18.240Z,3152
2018-07-13T06:02:43.736Z,3164
2018-07-13T06:03:09.220Z,2912
2018-07-13T06:03:34.690Z,2808
2018-07-13T06:04:00.262Z,3040
2018-07-13T06:04:25.709Z,3284
2018-07-13T06:04:51.221Z,3588
2018-07-13T06:05:16.695Z,3908
2018-07-13T06:05:42.209Z,4124
2018-07-13T06:06:07.709Z,4152
2018-07-13T06:07:21.553Z,3608
2018-07-13T06:07:47.051Z,3272
2018-07-13T06:08:12.559Z,3236
2018-07-13T06:08:38.069Z,3256
2018-07-13T06:09:03.544Z,3316
2018-07-13T06:09:29.037Z,3380
2018-07-13T06:09:54.500Z,3240
2018-07-13T06:10:20.006Z,2968
2018-07-13T06:10:45.513Z,2884
2018-07-13T06:11:11.012Z,3012
2018-07-13T06:11:36.477Z,3328
2018-07-13T06:12:01.972Z,3552
2018-07-13T06:12:27.490Z,3576
2018-07-13T06:12:52.973Z,3492
2018-07-13T06:13:18.461Z,3516
2018-07-13T06:13:43.961Z,3468
2018-07-13T06:14:09.448Z,3236
2018-07-13T06:14:34.968Z,3048
2018-07-13T06:15:00.517Z,3008
2018-07-13T06:15:25.953Z,3048
2018-07-13T06:15:51.438Z,3036
2018-07-13T06:16:16.959Z,3064
2018-07-13T06:16:42.451Z,3092
2018-07-13T06:17:07.966Z,3116
2018-07-13T06:17:33.452Z,3112
2018-07-13T06:17:58.981Z,3072
2018-07-13T06:18:24.446Z,3108
2018-07-13T06:18:49.928Z,3232
2018-07-13T06:19:15.433Z,3272
2018-07-13T06:19:40.931Z,3348
2018-07-13T06:20:06.409Z,3456
2018-07-13T06:20:31.899Z,3580
2018-07-13T06:20:57.390Z,3800
2018-07-13T06:21:22.928Z,3988
2018-07-13T06:21:48.386Z,4028
2018-07-13T06:22:13.897Z,4148
2018-07-13T06:22:39.405Z,4368
2018-07-13T06:23:04.901Z,4516
2018-07-13T06:23:30.392Z,4676
2018-07-13T06:23:55.852Z,4928
2018-07-13T06:24:21.433Z,5336
2018-07-13T06:24:46.847Z,5684
2018-07-13T06:25:12.340Z,5952
2018-07-13T06:25:37.830Z,6288
2018-07-13T06:26:03.310Z,6716
2018-07-13T06:26:28.827Z,6888
2018-07-13T06:26:54.329Z,6928
2018-07-13T06:27:19.832Z,7156
2018-07-13T06:27:45.334Z,7404
2018-07-13T06:28:10.852Z,7620
2018-07-13T06:28:36.394Z,7632
2018-07-13T06:29:01.878Z,8484
2018-07-13T06:29:27.391Z,7188
2018-07-13T06:29:52.902Z,6920
2018-07-13T06:30:18.469Z,6208
2018-07-13T06:30:43.916Z,6016
2018-07-13T06:31:09.412Z,5996
2018-07-13T06:31:34.980Z,6028
2018-07-13T06:32:00.370Z,6120
2018-07-13T06:32:25.870Z,6204
2018-07-13T06:32:51.407Z,6176
2018-07-13T06:33:16.908Z,6212
2018-07-13T06:33:42.403Z,6212
2018-07-13T06:34:07.890Z,6396
2018-07-13T06:34:33.381Z,6428
2018-07-13T06:34:58.883Z,6864
2018-07-13T06:35:24.370Z,7332
2018-07-13T06:35:49.867Z,7176
2018-07-13T06:36:15.377Z,6656
2018-07-13T06:36:40.867Z,6360
2018-07-13T06:37:06.342Z,5976
2018-07-13T06:37:31.870Z,5920
2018-07-13T06:37:57.393Z,5776
2018-07-13T06:38:22.909Z,5628
2018-07-13T06:38:48.445Z,5452
2018-07-13T06:39:13.949Z,5448
2018-07-13T06:39:39.455Z,5380
2018-07-13T06:40:04.938Z,5332
2018-07-13T06:40:30.501Z,5352
2018-07-13T06:40:55.948Z,5364
2018-07-13T06:41:21.490Z,5392
2018-07-13T06:41:46.954Z,5396
2018-07-13T06:42:12.465Z,5440
2018-07-13T06:42:37.940Z,5588
2018-07-13T06:43:03.440Z,5884
2018-07-13T06:43:28.932Z,6260
2018-07-13T06:43:54.417Z,6484
2018-07-13T06:44:19.947Z,6176
2018-07-13T06:44:45.432Z,5904
2018-07-13T06:45:10.933Z,5680
2018-07-13T06:46:19.627Z,5408
2018-07-13T06:46:45.136Z,5604
2018-07-13T06:47:10.625Z,5332
2018-07-13T06:47:36.124Z,5080
2018-07-13T06:48:01.624Z,4988
2018-07-13T06:48:27.122Z,4880
2018-07-13T06:48:52.635Z,4772
2018-07-13T06:49:18.122Z,4632
2018-07-13T06:49:43.630Z,4520
2018-07-13T06:50:09.174Z,4600
2018-07-13T06:50:34.717Z,4792
2018-07-13T06:51:00.170Z,4856
2018-07-13T06:51:25.680Z,4792
2018-07-13T06:51:51.155Z,4676
2018-07-13T06:52:16.689Z,4644
2018-07-13T06:52:42.196Z,5028
2018-07-13T06:53:07.727Z,5652
2018-07-13T06:53:33.204Z,6068
2018-07-13T06:53:58.721Z,6120
2018-07-13T06:54:24.202Z,6072
2018-07-13T06:54:49.693Z,6196
2018-07-13T06:55:15.209Z,6416
2018-07-13T06:55:40.709Z,6624
2018-07-13T06:56:06.197Z,6716
2018-07-13T06:56:31.705Z,6688
2018-07-13T06:56:57.177Z,6708
2018-07-13T06:57:22.673Z,6416
2018-07-13T06:57:48.165Z,5884
2018-07-13T06:58:13.671Z,5580
2018-07-13T06:58:39.215Z,5432
2018-07-13T06:59:04.735Z,5420
2018-07-13T06:59:30.236Z,5448
2018-07-13T06:59:55.760Z,5108
2018-07-13T07:00:21.250Z,4800
2018-07-13T07:00:46.750Z,4696
2018-07-13T07:01:12.323Z,4672
2018-07-13T07:01:37.776Z,4680
2018-07-13T07:02:03.292Z,4704
2018-07-13T07:02:28.772Z,4840
2018-07-13T07:02:54.285Z,5028
2018-07-13T07:03:19.774Z,5152
2018-07-13T07:03:45.295Z,5320
2018-07-13T07:04:10.778Z,5576
2018-07-13T07:04:36.284Z,5760
2018-07-13T07:05:01.748Z,5696
2018-07-13T07:05:27.244Z,5504
2018-07-13T07:05:52.754Z,5396
2018-07-13T07:06:18.254Z,5488
2018-07-13T07:06:43.739Z,5600
2018-07-13T07:07:09.225Z,5652
2018-07-13T07:07:34.770Z,5824
2018-07-13T07:08:00.233Z,5936
2018-07-13T07:09:03.849Z,5568
2018-07-13T07:09:29.345Z,5696
2018-07-13T07:09:54.859Z,5584
2018-07-13T07:10:20.358Z,5224
2018-07-13T07:10:45.884Z,4888
2018-07-13T07:11:11.394Z,4656
2018-07-13T07:11:36.903Z,4600
2018-07-13T07:12:02.395Z,4780
2018-07-13T07:12:27.885Z,5232
2018-07-13T07:12:53.351Z,5804
2018-07-13T07:13:18.835Z,6276
2018-07-13T07:13:44.357Z,6480
2018-07-13T07:14:09.871Z,6548
2018-07-13T07:14:35.324Z,6624
2018-07-13T07:15:00.856Z,6688
2018-07-13T07:15:26.380Z,6748
2018-07-13T07:15:51.873Z,6928
2018-07-13T07:16:17.362Z,7244
2018-07-13T07:16:42.858Z,7464
2018-07-13T07:17:08.354Z,7356
2018-07-13T07:17:33.821Z,6848
2018-07-13T07:17:59.350Z,6448
2018-07-13T07:18:24.841Z,6328
2018-07-13T07:18:50.308Z,6460
2018-07-13T07:19:15.813Z,6872
2018-07-13T07:19:41.350Z,7580
2018-07-13T07:20:06.859Z,8192
2018-07-13T07:20:32.347Z,8712
2018-07-13T07:20:57.846Z,8964
2018-07-13T07:21:23.327Z,9124
2018-07-13T07:21:48.836Z,9052
2018-07-13T07:22:14.333Z,9052
2018-07-13T07:22:39.814Z,9056
2018-07-13T07:23:05.356Z,9092
2018-07-13T07:23:30.855Z,9112
2018-07-13T07:23:56.321Z,9028
2018-07-13T07:24:21.813Z,9024
2018-07-13T07:24:47.292Z,9192
2018-07-13T07:25:12.789Z,9628
2018-07-13T07:25:38.258Z,10608
2018-07-13T07:26:03.765Z,11516
2018-07-13T07:26:29.291Z,12072
2018-07-13T07:26:54.794Z,12584
2018-07-13T07:27:20.301Z,13496
2018-07-13T07:27:45.805Z,11864
2018-07-13T07:28:11.329Z,10824
2018-07-13T07:28:36.822Z,9728
2018-07-13T07:29:02.308Z,9380
2018-07-13T07:29:27.827Z,9088
2018-07-13T07:29:53.315Z,9156
2018-07-13T07:30:18.838Z,9248
2018-07-13T07:30:44.480Z,9340
2018-07-13T07:31:09.833Z,9728
2018-07-13T07:31:35.360Z,9400
2018-07-13T07:32:00.866Z,8996
2018-07-13T07:32:26.371Z,8888
2018-07-13T07:32:51.993Z,9124
2018-07-13T07:33:17.541Z,9548
2018-07-13T07:33:43.109Z,10072
2018-07-13T07:34:08.607Z,10544
2018-07-13T07:34:34.095Z,10712
2018-07-13T07:34:59.617Z,10564
2018-07-13T07:35:25.132Z,10520
2018-07-13T07:35:50.616Z,10952
2018-07-13T07:36:16.104Z,11148
2018-07-13T07:36:41.611Z,10992
2018-07-13T07:37:07.108Z,10712
2018-07-13T07:37:32.641Z,10436
2018-07-13T07:37:58.163Z,10260
2018-07-13T07:38:23.663Z,10412
2018-07-13T07:38:49.152Z,10940
2018-07-13T07:39:14.654Z,11532
2018-07-13T07:39:40.131Z,11832
2018-07-13T07:40:05.629Z,12000
2018-07-13T07:40:31.135Z,12212
2018-07-13T07:40:56.649Z,11944
2018-07-13T07:41:22.125Z,16348
2018-07-13T07:41:47.621Z,15088
2018-07-13T07:42:13.098Z,12616
2018-07-13T07:42:38.614Z,12468
2018-07-13T07:43:04.081Z,12400
2018-07-13T07:43:29.615Z,12684
2018-07-13T07:43:55.183Z,12852
2018-07-13T07:45:08.911Z,28864
2018-07-13T07:45:34.408Z,25920
2018-07-13T07:45:59.895Z,12192
2018-07-13T07:46:25.376Z,11404
2018-07-13T07:46:50.869Z,11124
2018-07-13T07:47:16.349Z,10860
2018-07-13T07:47:41.833Z,11128
2018-07-13T07:48:07.311Z,12168
2018-07-13T07:48:32.774Z,12876
2018-07-13T07:48:58.266Z,13496
2018-07-13T07:49:23.771Z,13452
2018-07-13T07:49:49.287Z,13368
2018-07-13T07:50:14.784Z,13680
2018-07-13T07:50:40.286Z,13976
2018-07-13T07:51:05.848Z,14176
2018-07-13T07:51:31.375Z,13940
2018-07-13T07:51:56.874Z,13980
2018-07-13T07:52:22.357Z,13972
2018-07-13T07:52:47.859Z,16128
2018-07-13T07:53:13.358Z,14084
2018-07-13T07:53:38.881Z,13836
2018-07-13T07:54:04.367Z,14360
2018-07-13T07:54:29.880Z,15692
2018-07-13T07:54:55.360Z,16100
2018-07-13T07:55:20.840Z,15976
2018-07-13T07:55:46.360Z,15016
2018-07-13T07:56:11.842Z,14428
2018-07-13T07:56:37.337Z,14736
2018-07-13T07:57:02.818Z,25888
2018-07-13T07:57:28.387Z,24288
2018-07-13T07:57:53.812Z,16608
2018-07-13T07:58:19.328Z,10344
2018-07-13T07:58:44.828Z,9300
2018-07-13T07:59:10.340Z,8820
2018-07-13T07:59:35.880Z,8492
2018-07-13T08:00:01.338Z,8308
2018-07-13T08:00:26.871Z,8384
2018-07-13T08:00:52.393Z,8356
2018-07-13T08:01:17.939Z,8512
2018-07-13T08:01:43.436Z,8552
2018-07-13T08:02:08.915Z,8248
2018-07-13T08:02:34.412Z,7760
2018-07-13T08:02:59.876Z,7624
2018-07-13T08:03:25.404Z,8152
2018-07-13T08:03:50.927Z,11932
2018-07-13T08:04:16.408Z,13332
2018-07-13T08:04:41.951Z,18496
2018-07-13T08:05:07.445Z,18656
2018-07-13T08:05:32.950Z,16852
2018-07-13T08:05:58.459Z,18368
2018-07-13T08:06:24.083Z,17984
2018-07-13T08:06:49.722Z,17760
2018-07-13T08:07:15.580Z,18016
2018-07-13T08:07:40.526Z,17824
2018-07-13T08:08:06.002Z,17728
2018-07-13T08:08:31.474Z,18112
2018-07-13T08:08:56.980Z,18080
2018-07-13T08:09:22.474Z,18048
2018-07-13T08:09:48.018Z,17312
2018-07-13T08:10:13.524Z,16832
2018-07-13T08:10:39.020Z,16656
2018-07-13T08:11:04.501Z,13444
2018-07-13T08:11:29.972Z,12572
2018-07-13T08:11:55.460Z,15352
2018-07-13T08:12:20.935Z,15648
2018-07-13T08:12:46.453Z,15732
2018-07-13T08:13:11.933Z,15380
2018-07-13T08:13:37.530Z,14448
2018-07-13T08:14:03.188Z,16296
2018-07-13T08:14:28.451Z,17952
2018-07-13T08:14:53.973Z,19392
2018-07-13T08:15:19.459Z,20096
2018-07-13T08:15:44.943Z,20608
2018-07-13T08:16:10.439Z,15356
2018-07-13T08:16:35.917Z,21120
2018-07-13T08:17:01.396Z,20896
2018-07-13T08:17:26.878Z,20928
2018-07-13T08:17:52.387Z,20992
2018-07-13T08:18:17.911Z,21568
2018-07-13T08:18:43.384Z,22176
2018-07-13T08:19:08.830Z,22944
2018-07-13T08:19:34.298Z,22976
2018-07-13T08:19:59.788Z,21984
2018-07-13T08:20:25.315Z,19616
2018-07-13T08:20:50.823Z,17056
2018-07-13T08:21:16.296Z,14904
2018-07-13T08:21:41.746Z,13312
2018-07-13T08:22:07.243Z,12476
2018-07-13T08:22:32.713Z,12132
2018-07-13T08:22:58.229Z,11976
2018-07-13T08:23:23.693Z,11732
2018-07-13T08:23:49.203Z,11552
2018-07-13T08:24:14.717Z,11336
2018-07-13T08:24:40.235Z,11332
2018-07-13T08:25:05.698Z,11244
2018-07-13T08:25:31.215Z,11260
2018-07-13T08:25:56.683Z,11108
2018-07-13T08:26:22.178Z,11292
2018-07-13T08:26:47.837Z,11376
2018-07-13T08:27:13.193Z,11472
2018-07-13T08:27:38.645Z,11536
2018-07-13T08:28:04.119Z,11716
2018-07-13T08:28:29.592Z,11856
2018-07-13T08:29:38.485Z,11792
2018-07-13T08:30:03.926Z,11808
2018-07-13T08:30:29.404Z,11980
2018-07-13T08:30:54.926Z,12196
2018-07-13T08:31:20.449Z,12140
2018-07-13T08:31:45.965Z,11764
2018-07-13T08:32:11.601Z,11524
2018-07-13T08:32:37.004Z,11296
2018-07-13T08:33:02.483Z,11196
2018-07-13T08:33:27.976Z,11056
2018-07-13T08:33:53.481Z,10944
2018-07-13T08:34:19.004Z,10952
2018-07-13T08:34:44.568Z,10952
2018-07-13T08:35:09.986Z,10876
2018-07-13T08:35:35.470Z,10564
2018-07-13T08:36:00.958Z,10464
2018-07-13T08:37:24.969Z,9852
2018-07-13T08:37:50.597Z,9620
2018-07-13T08:38:15.954Z,9684
2018-07-13T08:38:41.469Z,9556
2018-07-13T08:39:06.987Z,8824
2018-07-13T08:39:32.507Z,9052
2018-07-13T08:39:58.015Z,9248
2018-07-13T08:40:23.520Z,9116
2018-07-13T08:40:49.015Z,8928
2018-07-13T08:41:52.612Z,8656
2018-07-13T08:42:18.114Z,8128
2018-07-13T08:42:43.601Z,8432
2018-07-13T08:43:09.115Z,8304
2018-07-13T08:43:34.594Z,8028
2018-07-13T08:44:00.121Z,7844
2018-07-13T08:44:25.592Z,7616
2018-07-13T08:44:51.065Z,7384
2018-07-13T08:45:16.585Z,7112
2018-07-13T08:45:42.073Z,6872
2018-07-13T08:46:07.555Z,6700
2018-07-13T08:46:33.024Z,6412
2018-07-13T08:46:58.537Z,6472
2018-07-13T08:47:23.999Z,5704
2018-07-13T08:47:49.485Z,5996
2018-07-13T08:48:15.000Z,5844
2018-07-13T08:48:40.534Z,5704
2018-07-13T08:49:06.005Z,5648
2018-07-13T08:49:31.503Z,5584
2018-07-13T08:49:57.000Z,5484
2018-07-13T08:50:22.519Z,5448
2018-07-13T08:50:48.035Z,5364
2018-07-13T08:51:13.588Z,5304
2018-07-13T08:51:39.137Z,5248
2018-07-13T08:52:04.489Z,5196
2018-07-13T08:52:29.967Z,5164
2018-07-13T08:52:55.450Z,5148
2018-07-13T08:53:20.924Z,5128
2018-07-13T08:53:46.440Z,5108
2018-07-13T08:54:11.917Z,5088
2018-07-13T08:54:37.437Z,5036
2018-07-13T08:55:02.950Z,4996
2018-07-13T08:55:28.443Z,4936
2018-07-13T08:55:53.951Z,4964
2018-07-13T08:56:19.501Z,4940
2018-07-13T08:56:44.940Z,4888
2018-07-13T08:57:10.477Z,4876
2018-07-13T08:57:36.011Z,4852
2018-07-13T08:58:01.540Z,4868
2018-07-13T08:58:27.118Z,4856
2018-07-13T08:58:52.579Z,4860
2018-07-13T08:59:18.113Z,4864
2018-07-13T08:59:43.609Z,4880
2018-07-13T09:00:09.088Z,4804
2018-07-13T09:00:34.551Z,4760
2018-07-13T09:01:00.050Z,4696
2018-07-13T09:01:25.491Z,4504
2018-07-13T09:01:50.991Z,4708
2018-07-13T09:02:16.484Z,4692
2018-07-13T09:02:41.984Z,4612
2018-07-13T09:03:07.479Z,4672
2018-07-13T09:03:32.988Z,4648
2018-07-13T09:03:58.505Z,4600
2018-07-13T09:04:24.069Z,4568
2018-07-13T09:04:49.554Z,4568
2018-07-13T09:05:15.174Z,4548
2018-07-13T09:05:40.696Z,4532
2018-07-13T09:06:06.193Z,4564
2018-07-13T09:06:31.734Z,4580
2018-07-13T09:06:57.196Z,4596
2018-07-13T09:07:22.724Z,4604
2018-07-13T09:07:48.180Z,4616
2018-07-13T09:08:13.676Z,4620
2018-07-13T09:08:39.189Z,4628
2018-07-13T09:09:04.664Z,4624
2018-07-13T09:09:30.168Z,4620
2018-07-13T09:09:55.666Z,4612
2018-07-13T09:10:21.166Z,4604
2018-07-13T09:10:46.776Z,4592
2018-07-13T09:11:12.215Z,4588
2018-07-13T09:11:37.711Z,4596
2018-07-13T09:12:03.208Z,4604
2018-07-13T09:12:28.662Z,4592
2018-07-13T09:13:32.270Z,4596
2018-07-13T09:13:57.757Z,4588
2018-07-13T09:14:23.271Z,4580
2018-07-13T09:14:48.867Z,4580
2018-07-13T09:15:14.330Z,4584
2018-07-13T09:15:39.855Z,4572
2018-07-13T09:16:05.307Z,4552
2018-07-13T09:16:30.834Z,4544
2018-07-13T09:16:56.331Z,4540
2018-07-13T09:17:21.807Z,4512
2018-07-13T09:17:47.280Z,4520
2018-07-13T09:18:12.854Z,4516
2018-07-13T09:18:38.417Z,4504
2018-07-13T09:19:03.929Z,4484
2018-07-13T09:19:29.429Z,4472
2018-07-13T09:19:54.926Z,4484
2018-07-13T09:20:20.474Z,4496
2018-07-13T09:20:45.934Z,4504
2018-07-13T09:21:11.429Z,4496
2018-07-13T09:21:36.922Z,4484
2018-07-13T09:22:02.442Z,4480
2018-07-13T09:22:27.951Z,4464
2018-07-13T09:22:53.423Z,4448
2018-07-13T09:23:18.972Z,4436
2018-07-13T09:23:44.448Z,4420
2018-07-13T09:24:10.070Z,4404
2018-07-13T09:24:35.428Z,4392
2018-07-13T09:25:00.926Z,4368
2018-07-13T09:25:26.425Z,4352
2018-07-13T09:25:51.964Z,4340
2018-07-13T09:26:17.414Z,4328
2018-07-13T09:26:42.900Z,4320
2018-07-13T09:27:08.395Z,4308
2018-07-13T09:27:33.868Z,4300
2018-07-13T09:27:59.409Z,4292
2018-07-13T09:28:24.874Z,4284
2018-07-13T09:28:50.329Z,4284
2018-07-13T09:29:15.831Z,4288
2018-07-13T09:29:41.318Z,4276
2018-07-13T09:30:06.757Z,4280
2018-07-13T09:30:32.434Z,4280
2018-07-13T09:30:58.011Z,4264
2018-07-13T09:31:23.501Z,4248
2018-07-13T09:31:49.013Z,4224
2018-07-13T09:32:14.462Z,4216
2018-07-13T09:32:39.993Z,4212
2018-07-13T09:33:05.482Z,4192
2018-07-13T09:33:31.057Z,4172
2018-07-13T09:33:56.560Z,4168
2018-07-13T09:34:22.092Z,4136
2018-07-13T09:35:35.865Z,4060
2018-07-13T09:36:01.364Z,4056
2018-07-13T09:36:26.863Z,4036
2018-07-13T09:36:52.380Z,4040
2018-07-13T09:37:17.883Z,4044
2018-07-13T09:37:43.364Z,4048
2018-07-13T09:38:08.874Z,4052
2018-07-13T09:38:34.371Z,4056
2018-07-13T09:38:59.864Z,4076
2018-07-13T09:39:25.394Z,4068
2018-07-13T09:39:50.849Z,4072
2018-07-13T09:40:16.361Z,4076
2018-07-13T09:40:41.866Z,4076
2018-07-13T09:41:55.730Z,4052
2018-07-13T09:42:21.228Z,4048
2018-07-13T09:42:46.717Z,4040
2018-07-13T09:43:12.272Z,4032
2018-07-13T09:43:37.770Z,4012
2018-07-13T09:44:03.284Z,4004
2018-07-13T09:44:28.798Z,3992
2018-07-13T09:44:54.292Z,3984
2018-07-13T09:45:19.773Z,3972
2018-07-13T09:45:45.293Z,3968
2018-07-13T09:46:10.779Z,3960
2018-07-13T09:46:36.354Z,3952
2018-07-13T09:47:01.998Z,3936
2018-07-13T09:47:27.265Z,3916
2018-07-13T09:47:52.782Z,3900
2018-07-13T09:48:18.284Z,3896
2018-07-13T09:48:43.759Z,3904
2018-07-13T09:49:09.260Z,3908
2018-07-13T09:49:34.839Z,3908
2018-07-13T09:50:00.339Z,3916
2018-07-13T09:50:25.840Z,3924
2018-07-13T09:50:51.373Z,3924
2018-07-13T09:51:16.838Z,3932
2018-07-13T09:51:42.392Z,3932
2018-07-13T09:52:07.877Z,3928
2018-07-13T09:52:33.392Z,3928
2018-07-13T09:52:58.875Z,3924
2018-07-13T09:53:24.361Z,3916
2018-07-13T09:53:50.009Z,3908
2018-07-13T09:54:15.503Z,3900
2018-07-13T09:54:40.844Z,3892
2018-07-13T09:55:06.310Z,3888
2018-07-13T09:55:31.871Z,3880
2018-07-13T09:55:57.392Z,3876
2018-07-13T09:56:22.896Z,3868
2018-07-13T09:56:48.506Z,3860
2018-07-13T09:57:14.017Z,3856
2018-07-13T09:57:39.503Z,3848
2018-07-13T09:58:04.969Z,3844
2018-07-13T09:58:30.477Z,3836
2018-07-13T09:58:56.007Z,3824
2018-07-13T09:59:21.544Z,3816
2018-07-13T09:59:47.019Z,3812
2018-07-13T10:00:12.533Z,3816
2018-07-13T10:00:38.092Z,3820
2018-07-13T10:01:03.480Z,3816
2018-07-13T10:01:28.997Z,3816
2018-07-13T10:01:54.482Z,3804